Time;durP1;ratioP1;P1;durP2;ratioP2;P2;SDS_P1;SDS_P2;PMS_P1;PMS_P2;Temp;Humidity;BMP_temperature;BMP_pressure;BME280_temperature;BME280_humidity;BME280_pressure;Samples;Min_cycle;Max_cycle;Signal;HPM_P1;HPM_P2
2023/02/08 00:01:13;;;;;;;19.60;11.40;;;;;;;-6.31;63.66;102644.48;105535;1261;65324;-72
2023/02/08 00:03:43;;;;;;;20.40;11.10;;;;;;;-6.34;63.75;102645.27;105950;1254;60536;-72
2023/02/08 00:06:11;;;;;;;20.20;11.50;;;;;;;-6.37;63.67;102653.73;105797;1254;60533;-72
2023/02/08 00:08:40;;;;;;;20.00;11.30;;;;;;;-6.41;63.68;102658.95;105915;1257;66847;-72
2023/02/08 00:11:11;;;;;;;20.30;11.90;;;;;;;-6.45;63.69;102664.52;105792;1256;60443;-72
2023/02/08 00:13:40;;;;;;;19.10;11.30;;;;;;;-6.48;63.77;102666.48;106200;1253;65315;-72
2023/02/08 00:16:11;;;;;;;21.50;11.80;;;;;;;-6.51;63.80;102667.09;106701;1254;172812;-70
2023/02/08 00:18:40;;;;;;;23.20;12.00;;;;;;;-6.54;63.84;102673.17;105740;1260;60617;-71
2023/02/08 00:21:10;;;;;;;20.20;11.60;;;;;;;-6.58;63.92;102672.73;105874;1254;66683;-72
2023/02/08 00:23:39;;;;;;;20.70;11.30;;;;;;;-6.60;63.96;102673.36;105730;1256;60408;-71
2023/02/08 00:26:07;;;;;;;24.70;12.40;;;;;;;-6.62;64.00;102677.58;105742;1253;65206;-72
2023/02/08 00:28:35;;;;;;;23.80;12.70;;;;;;;-6.63;64.04;102681.84;105980;1254;60334;-71
2023/02/08 00:31:04;;;;;;;22.90;11.70;;;;;;;-6.65;64.11;102682.63;105774;1257;60528;-73
2023/02/08 00:33:32;;;;;;;20.60;12.00;;;;;;;-6.68;64.10;102681.01;105897;1253;65553;-72
2023/02/08 00:36:01;;;;;;;21.80;12.10;;;;;;;-6.71;64.14;102682.13;105850;1254;60456;-71
2023/02/08 00:38:30;;;;;;;22.10;12.30;;;;;;;-6.75;64.16;102687.83;105729;1254;64757;-72
2023/02/08 00:40:59;;;;;;;22.00;11.20;;;;;;;-6.79;64.21;102686.34;105977;1254;60463;-72
2023/02/08 00:43:27;;;;;;;21.30;12.50;;;;;;;-6.82;64.21;102687.80;105672;1252;60438;-73
2023/02/08 00:45:56;;;;;;;23.20;12.80;;;;;;;-6.84;64.23;102687.39;106095;1254;66811;-72
2023/02/08 00:48:26;;;;;;;22.70;12.00;;;;;;;-6.85;64.27;102690.96;105996;1254;60367;-73
2023/02/08 00:51:02;;;;;;;20.90;12.20;;;;;;;-6.86;64.26;102692.30;105820;1255;65252;-72
2023/02/08 00:53:34;;;;;;;19.80;11.70;;;;;;;-6.88;64.30;102694.11;105675;1252;60498;-72
2023/02/08 00:56:03;;;;;;;24.40;11.90;;;;;;;-6.91;64.28;102696.29;105673;1254;60485;-72
2023/02/08 00:58:32;;;;;;;20.20;12.20;;;;;;;-6.93;64.43;102697.25;105708;1254;67137;-72
2023/02/08 01:01:00;;;;;;;22.80;12.60;;;;;;;-6.96;64.42;102704.52;105682;1251;60454;-72
2023/02/08 01:03:36;;;;;;;21.10;12.50;;;;;;;-6.99;64.45;102710.09;105662;1260;64292;-72
2023/02/08 01:06:16;;;;;;;24.10;12.30;;;;;;;-7.02;64.57;102712.06;105701;1260;60377;-71
2023/02/08 01:08:45;;;;;;;22.30;12.10;;;;;;;-7.05;64.55;102714.19;105770;1252;60448;-72
2023/02/08 01:11:24;;;;;;;21.70;11.80;;;;;;;-7.05;64.55;102718.61;106010;1255;66596;-72
2023/02/08 01:13:54;;;;;;;25.00;13.50;;;;;;;-7.08;64.49;102720.94;105726;1252;60563;-72
2023/02/08 01:16:28;;;;;;;23.10;13.40;;;;;;;-7.10;64.53;102723.27;105807;1259;65605;-72
2023/02/08 01:18:57;;;;;;;23.00;13.60;;;;;;;-7.12;64.57;102725.45;105897;1256;60425;-72
2023/02/08 01:21:31;;;;;;;22.90;12.80;;;;;;;-7.14;64.68;102729.33;105840;1256;60427;-73
2023/02/08 01:23:59;;;;;;;23.40;12.40;;;;;;;-7.15;64.59;102723.81;105875;1253;65760;-71
2023/02/08 01:26:31;;;;;;;24.30;12.80;;;;;;;-7.17;64.68;102729.04;106048;1253;60528;-72
2023/02/08 01:28:59;;;;;;;22.60;13.00;;;;;;;-7.19;64.67;102731.39;106007;1251;65553;-72
2023/02/08 01:31:29;;;;;;;25.40;13.70;;;;;;;-7.22;64.66;102728.23;105809;1256;60454;-71
2023/02/08 01:34:00;;;;;;;19.80;10.10;;;;;;;-7.23;64.77;102732.47;105885;1258;60405;-71
2023/02/08 01:36:29;;;;;;;24.20;12.30;;;;;;;-7.26;64.83;102732.02;106061;1252;66922;-73
2023/02/08 01:38:57;;;;;;;22.40;11.90;;;;;;;-7.28;64.92;102729.23;105741;1256;60473;-71
2023/02/08 01:41:28;;;;;;;25.00;13.80;;;;;;;-7.29;64.95;102734.85;105864;1253;64419;-72
2023/02/08 01:44:12;;;;;;;25.50;13.40;;;;;;;-7.30;64.95;102737.23;105846;1259;60429;-73
2023/02/08 01:46:42;;;;;;;25.00;13.60;;;;;;;-7.32;64.96;102741.77;106136;1254;60451;-72
2023/02/08 01:49:18;;;;;;;24.60;13.50;;;;;;;-7.35;65.01;102744.40;105900;1252;65876;-71
2023/02/08 01:51:58;;;;;;;22.50;12.40;;;;;;;-7.37;65.03;102743.15;106058;1256;60432;-71
2023/02/08 01:54:30;;;;;;;24.40;13.50;;;;;;;-7.39;65.06;102742.21;105804;1256;65535;-73
2023/02/08 01:56:58;;;;;;;23.20;12.90;;;;;;;-7.40;65.10;102744.77;105835;1259;60335;-71
2023/02/08 01:59:37;;;;;;;26.80;13.80;;;;;;;-7.42;65.07;102745.91;105871;1254;60430;-72
2023/02/08 02:02:08;;;;;;;23.50;12.70;;;;;;;-7.43;65.14;102747.37;105740;1254;66518;-71
2023/02/08 02:04:36;;;;;;;24.70;13.70;;;;;;;-7.45;65.17;102751.95;106025;1253;60546;-72
2023/02/08 02:07:05;;;;;;;24.50;13.50;;;;;;;-7.46;65.27;102758.09;106033;1257;64790;-72
2023/02/08 02:09:42;;;;;;;24.30;13.00;;;;;;;-7.47;65.19;102761.64;105757;1254;60324;-72
2023/02/08 02:12:10;;;;;;;23.60;12.80;;;;;;;-7.48;65.16;102764.52;105636;1253;60869;-71
2023/02/08 02:14:39;;;;;;;24.60;13.70;;;;;;;-7.49;65.22;102768.44;105606;1253;66749;-72
2023/02/08 02:17:10;;;;;;;25.40;13.00;;;;;;;-7.49;65.24;102772.36;105673;1251;60513;-72
2023/02/08 02:20:17;;;;;;;22.80;13.30;;;;;;;-7.51;65.28;102772.81;105783;1254;65542;-72
2023/02/08 02:23:04;;;;;;;25.10;13.80;;;;;;;-7.55;65.29;102775.25;105660;1253;60526;-72
2023/02/08 02:25:45;;;;;;;24.00;13.40;;;;;;;-7.56;65.43;102782.55;105631;1257;60408;-72
2023/02/08 02:28:20;;;;;;;27.50;14.70;;;;;;;-7.56;65.49;102785.30;105790;1255;66820;-73
2023/02/08 02:30:52;;;;;;;24.40;13.90;;;;;;;-7.57;65.49;102785.95;105802;1253;60567;-73
2023/02/08 02:33:42;;;;;;;25.70;14.00;;;;;;;-7.58;65.51;102790.89;105771;1253;65514;-72
2023/02/08 02:36:24;;;;;;;24.60;13.90;;;;;;;-7.59;65.51;102799.75;105961;1253;60481;-72
2023/02/08 02:39:16;;;;;;;24.70;12.90;;;;;;;-7.60;65.50;102804.86;105801;1253;60429;-72
2023/02/08 02:44:55;;;;;;;26.50;14.20;;;;;;;-7.62;65.56;102810.75;105791;1256;60438;-72
2023/02/08 02:47:41;;;;;;;26.70;14.90;;;;;;;-7.63;65.64;102813.10;105877;1253;65285;-72
2023/02/08 02:50:14;;;;;;;25.00;15.20;;;;;;;-7.63;65.66;102815.52;105812;1253;60449;-72
2023/02/08 02:53:10;;;;;;;28.20;14.60;;;;;;;-7.64;65.63;102816.51;105945;1253;60346;-72
2023/02/08 02:55:41;;;;;;;29.80;15.00;;;;;;;-7.67;65.59;102826.16;105630;1257;66442;-71
2023/02/08 02:58:10;;;;;;;27.20;14.80;;;;;;;-7.70;65.60;102832.90;105724;1251;60517;-71
2023/02/08 03:00:38;;;;;;;27.10;14.80;;;;;;;-7.73;65.60;102835.17;105779;1258;65513;-71
2023/02/08 03:03:20;;;;;;;27.80;14.30;;;;;;;-7.76;65.60;102839.17;106017;1254;60560;-73
2023/02/08 03:05:50;;;;;;;22.20;13.00;;;;;;;-7.79;65.71;102844.73;105649;1254;60470;-73
2023/02/08 03:08:50;;;;;;;30.50;15.30;;;;;;;-7.81;65.66;102846.38;105791;1257;66905;-70
2023/02/08 03:11:27;;;;;;;28.00;15.30;;;;;;;-7.84;65.70;102842.30;105988;1253;60489;-71
2023/02/08 03:14:35;;;;;;;29.60;15.50;;;;;;;-7.88;65.71;102850.06;105617;1257;65508;-71
2023/02/08 03:17:41;;;;;;;30.20;15.30;;;;;;;-7.89;65.85;102851.38;105807;1253;60329;-70
2023/02/08 03:20:15;;;;;;;31.30;15.60;;;;;;;-7.90;65.84;102853.02;105742;1254;60374;-72
2023/02/08 03:22:56;;;;;;;26.60;15.30;;;;;;;-7.92;65.86;102855.17;105762;1253;65725;-72
2023/02/08 03:26:10;;;;;;;27.70;15.70;;;;;;;-7.94;65.84;102853.09;105850;1253;60796;-72
2023/02/08 03:28:38;;;;;;;28.30;15.00;;;;;;;-7.97;65.81;102849.40;105624;1253;65782;-72
2023/02/08 03:31:31;;;;;;;29.40;16.10;;;;;;;-7.99;65.84;102850.50;105976;1253;60426;-72
2023/02/08 03:34:22;;;;;;;27.50;15.40;;;;;;;-8.01;65.79;102858.30;105780;1253;60352;-71
2023/02/08 03:37:05;;;;;;;31.00;15.40;;;;;;;-8.03;65.82;102865.88;105776;1257;66543;-71
2023/02/08 03:39:33;;;;;;;33.20;16.80;;;;;;;-8.07;65.86;102866.30;105877;1253;60737;-71
2023/02/08 03:42:05;;;;;;;36.00;18.10;;;;;;;-8.10;65.85;102864.48;105752;1253;65804;-71
2023/02/08 03:44:39;;;;;;;31.40;16.50;;;;;;;-8.13;65.89;102862.81;105995;1256;60529;-72
2023/02/08 03:47:17;;;;;;;27.90;16.00;;;;;;;-8.15;65.91;102861.21;105796;1253;60464;-72
2023/02/08 03:49:46;;;;;;;28.90;15.60;;;;;;;-8.15;65.99;102861.70;105920;1256;66619;-72
2023/02/08 03:52:14;;;;;;;26.60;14.90;;;;;;;-8.16;66.00;102863.91;105830;1253;60527;-72
2023/02/08 03:54:46;;;;;;;29.50;16.50;;;;;;;-8.19;66.00;102868.92;105757;1253;64558;-71
2023/02/08 03:57:29;;;;;;;28.40;15.40;;;;;;;-8.23;65.98;102871.67;105996;1257;60290;-72
2023/02/08 04:00:03;;;;;;;25.00;15.30;;;;;;;-8.26;66.01;102869.01;105879;1253;60476;-71
2023/02/08 04:02:46;;;;;;;31.90;16.00;;;;;;;-8.28;66.06;102866.70;105757;1253;66655;-71
2023/02/08 04:05:14;;;;;;;26.50;15.30;;;;;;;-8.31;66.15;102869.63;106002;1253;60293;-72
2023/02/08 04:07:42;;;;;;;28.60;15.20;;;;;;;-8.33;66.22;102873.15;105963;1253;65732;-72
2023/02/08 04:10:10;;;;;;;28.30;15.40;;;;;;;-8.35;66.23;102873.48;105982;1256;60492;-72
2023/02/08 04:12:39;;;;;;;32.00;16.10;;;;;;;-8.35;66.27;102877.05;106056;1252;60427;-71
2023/02/08 04:15:08;;;;;;;30.10;16.60;;;;;;;-8.33;66.24;102878.79;106029;1252;66784;-72
2023/02/08 04:17:40;;;;;;;29.40;15.90;;;;;;;-8.33;66.24;102880.69;105998;1253;60514;-72
2023/02/08 04:20:08;;;;;;;33.80;17.10;;;;;;;-8.34;66.26;102878.94;105828;1260;64186;-71
2023/02/08 04:30:35;;;;;;;32.80;18.20;;;;;;;-8.36;66.36;102893.93;102673;1302;607699;-72
2023/02/08 04:33:02;;;;;;;28.70;17.40;;;;;;;-8.41;66.40;102896.63;104889;1270;60175;-72
2023/02/08 04:35:29;;;;;;;29.80;15.90;;;;;;;-8.42;66.44;102901.56;105250;1265;59134;-72
2023/02/08 04:37:57;;;;;;;27.10;15.70;;;;;;;-8.43;66.56;102906.31;105289;1266;64820;-72
2023/02/08 04:40:24;;;;;;;29.50;16.20;;;;;;;-8.44;66.48;102911.92;105131;1267;59149;-72
2023/02/08 04:42:51;;;;;;;32.60;16.60;;;;;;;-8.47;66.47;102915.04;105213;1260;168837;-71
2023/02/08 04:45:17;;;;;;;30.20;15.70;;;;;;;-8.48;66.55;102917.71;105377;1261;59212;-72
2023/02/08 04:47:45;;;;;;;33.70;16.00;;;;;;;-8.49;66.57;102922.35;105319;1260;60048;-72
2023/02/08 04:50:12;;;;;;;31.10;16.20;;;;;;;-8.49;66.61;102929.48;105254;1261;64779;-72
2023/02/08 04:52:39;;;;;;;30.20;16.40;;;;;;;-8.50;66.64;102928.41;105070;1266;59922;-72
2023/02/08 04:55:06;;;;;;;30.60;16.40;;;;;;;-8.50;66.66;102928.73;105664;1262;65364;-72
2023/02/08 04:57:34;;;;;;;28.80;16.30;;;;;;;-8.51;66.69;102933.15;105537;1263;59716;-71
2023/02/08 05:00:01;;;;;;;28.40;16.70;;;;;;;-8.52;66.73;102935.69;105496;1261;59724;-71
2023/02/08 05:02:28;;;;;;;30.90;16.60;;;;;;;-8.52;66.80;102936.36;105399;1259;74028;-72
2023/02/08 05:04:55;;;;;;;32.50;17.70;;;;;;;-8.53;66.82;102939.03;105149;1263;59777;-71
2023/02/08 05:07:22;;;;;;;32.00;16.90;;;;;;;-8.55;66.80;102944.97;105255;1260;63640;-72
2023/02/08 05:09:49;;;;;;;32.60;18.00;;;;;;;-8.55;66.86;102951.27;105134;1260;59729;-71
2023/02/08 05:12:17;;;;;;;33.30;17.50;;;;;;;-8.56;66.78;102955.00;105243;1260;59673;-71
2023/02/08 05:14:44;;;;;;;37.70;19.20;;;;;;;-8.58;66.82;102960.41;105332;1260;65763;-71
2023/02/08 05:17:11;;;;;;;37.10;18.40;;;;;;;-8.59;66.85;102963.91;105405;1263;59833;-72
2023/02/08 05:19:37;;;;;;;33.80;17.60;;;;;;;-8.59;66.91;102971.41;105224;1264;64393;-72
2023/02/08 05:22:04;;;;;;;29.80;16.90;;;;;;;-8.61;66.93;102976.15;105155;1261;59631;-71
2023/02/08 05:24:32;;;;;;;35.00;17.00;;;;;;;-8.62;66.97;102976.43;105380;1260;59645;-71
2023/02/08 05:26:59;;;;;;;36.10;18.70;;;;;;;-8.62;67.09;102980.52;106981;1261;65911;-72
2023/02/08 05:29:26;;;;;;;28.50;15.90;;;;;;;-8.63;67.06;102983.73;105179;1261;59805;-71
2023/02/08 05:31:53;;;;;;;29.50;16.60;;;;;;;-8.63;67.04;102986.28;105358;1261;65571;-69
2023/02/08 05:34:20;;;;;;;32.50;17.00;;;;;;;-8.65;67.12;102991.02;105320;1267;61340;-74
2023/02/08 05:36:47;;;;;;;32.60;18.30;;;;;;;-8.64;67.12;102991.38;105231;1260;60274;-74
2023/02/08 05:39:14;;;;;;;34.00;17.80;;;;;;;-8.63;67.19;102992.80;105964;1261;66046;-73
2023/02/08 05:41:41;;;;;;;33.70;18.30;;;;;;;-8.63;67.24;102995.72;105348;1266;59950;-76
2023/02/08 05:44:07;;;;;;;30.80;16.20;;;;;;;-8.62;67.24;103004.27;105392;1261;64436;-72
2023/02/08 05:46:34;;;;;;;32.60;17.40;;;;;;;-8.62;67.28;103005.48;105199;1265;59724;-78
2023/02/08 05:49:04;;;;;;;28.00;16.50;;;;;;;-8.61;67.28;103008.40;105237;1261;59550;-70
2023/02/08 05:51:31;;;;;;;31.20;17.60;;;;;;;-8.61;67.33;103009.61;105428;1261;64761;-71
2023/02/08 05:53:58;;;;;;;36.10;18.00;;;;;;;-8.60;67.30;103012.38;105863;1259;60012;-71
2023/02/08 05:56:26;;;;;;;37.60;19.50;;;;;;;-8.59;67.34;103014.27;105369;1261;65214;-71
2023/02/08 05:58:53;;;;;;;35.80;19.20;;;;;;;-8.58;67.33;103024.80;105202;1264;59519;-70
2023/02/08 06:01:21;;;;;;;34.50;18.60;;;;;;;-8.55;67.37;103034.80;105216;1260;59654;-71
2023/02/08 06:03:48;;;;;;;32.90;17.40;;;;;;;-8.53;67.40;103044.66;105208;1261;64809;-75
2023/02/08 06:06:16;;;;;;;30.20;16.90;;;;;;;-8.50;67.43;103037.90;105350;1257;59745;-78
2023/02/08 06:08:45;;;;;;;33.00;17.50;;;;;;;-8.48;67.41;103039.05;105434;1256;65874;-72
2023/02/08 06:11:12;;;;;;;32.20;17.70;;;;;;;-8.45;67.46;103039.66;105555;1260;59667;-71
2023/02/08 06:13:40;;;;;;;31.20;16.70;;;;;;;-8.40;67.45;103042.60;105479;1259;59528;-73
2023/02/08 06:16:07;;;;;;;32.80;17.60;;;;;;;-8.36;67.41;103047.03;105542;1261;65898;-72
2023/02/08 06:18:33;;;;;;;31.20;16.90;;;;;;;-8.33;67.41;103050.05;105541;1263;60385;-72
2023/02/08 06:21:00;;;;;;;31.00;17.00;;;;;;;-8.30;67.44;103047.23;105583;1262;64630;-71
2023/02/08 06:23:27;;;;;;;33.60;18.30;;;;;;;-8.29;67.43;103044.54;105395;1264;59729;-70
2023/02/08 06:25:54;;;;;;;29.00;15.90;;;;;;;-8.28;67.42;103046.67;105716;1257;59647;-72
2023/02/08 06:28:21;;;;;;;28.70;16.80;;;;;;;-8.26;67.41;103048.63;105248;1263;66057;-72
2023/02/08 06:31:21;;;;;;;31.50;17.00;;;;;;;-8.23;67.37;103041.73;105478;1262;59619;-70
2023/02/08 06:33:57;;;;;;;40.10;21.00;;;;;;;-8.18;67.37;103042.98;105624;1258;65605;-69
2023/02/08 06:36:24;;;;;;;39.20;20.20;;;;;;;-8.15;67.40;103042.39;105385;1257;63374;-72
2023/02/08 06:38:51;;;;;;;37.90;18.90;;;;;;;-8.13;67.38;103046.42;105146;1257;59650;-70
2023/02/08 06:41:18;;;;;;;39.50;19.70;;;;;;;-8.08;67.40;103047.98;105277;1260;65834;-70
2023/02/08 06:43:46;;;;;;;35.50;18.90;;;;;;;-8.03;67.43;103049.00;105123;1264;59691;-70
2023/02/08 06:46:14;;;;;;;33.00;18.40;;;;;;;-7.99;67.41;103047.48;105391;1260;64082;-71
2023/02/08 06:48:41;;;;;;;36.20;18.60;;;;;;;-7.94;67.43;103040.30;105537;1256;59612;-70
2023/02/08 06:51:08;;;;;;;36.80;19.10;;;;;;;-7.88;67.53;103040.22;105523;1256;59692;-70
2023/02/08 06:53:35;;;;;;;32.10;17.50;;;;;;;-7.83;67.34;103040.23;105353;1257;65759;-69
2023/02/08 06:56:02;;;;;;;29.50;16.40;;;;;;;-7.78;67.31;103039.77;105041;1257;59904;-70
2023/02/08 06:58:29;;;;;;;28.40;16.70;;;;;;;-7.72;67.26;103043.21;105312;1257;65536;-70
2023/02/08 07:04:51;;;;;;;28.40;15.10;;;;;;;-7.61;67.24;103042.27;105326;1260;59745;-69
2023/02/08 07:07:35;;;;;;;30.70;16.90;;;;;;;-7.53;67.19;103044.47;106113;1260;66167;-69
2023/02/08 07:11:12;;;;;;;26.30;14.50;;;;;;;-7.41;67.09;103043.52;105254;1257;59663;-70
2023/02/08 07:13:40;;;;;;;27.50;15.00;;;;;;;-7.35;66.93;103051.11;105466;1264;65471;-71
2023/02/08 07:16:08;;;;;;;27.80;15.20;;;;;;;-7.31;66.78;103052.64;105775;1260;59641;-69
2023/02/08 07:18:36;;;;;;;29.40;17.10;;;;;;;-7.30;66.57;103050.45;106019;1256;59647;-70
2023/02/08 07:21:03;;;;;;;29.00;16.10;;;;;;;-7.26;66.62;103049.56;105747;1260;65963;-68
2023/02/08 07:23:31;;;;;;;27.60;15.70;;;;;;;-7.20;66.58;103047.56;105084;1263;59835;-71
2023/02/08 07:26:04;;;;;;;25.60;15.00;;;;;;;-7.15;66.50;103046.02;105381;1256;65571;-71
2023/02/08 07:28:31;;;;;;;27.80;15.80;;;;;;;-7.06;66.45;103046.19;105621;1256;59677;-69
2023/02/08 07:30:58;;;;;;;26.40;15.20;;;;;;;-6.98;66.38;103054.01;105329;1259;59555;-68
2023/02/08 07:33:25;;;;;;;28.80;15.80;;;;;;;-6.92;66.31;103056.10;105368;1256;65815;-70
2023/02/08 07:35:52;;;;;;;25.90;15.00;;;;;;;-6.85;66.20;103057.36;105435;1257;59540;-68
2023/02/08 07:38:19;;;;;;;26.20;14.90;;;;;;;-6.83;66.04;103060.70;105092;1257;65738;-71
2023/02/08 07:40:47;;;;;;;25.70;15.10;;;;;;;-6.82;65.82;103064.33;105462;1262;59618;-69
2023/02/08 07:43:14;;;;;;;29.00;15.50;;;;;;;-6.81;65.74;103068.65;105254;1257;59654;-68
2023/02/08 07:45:45;;;;;;;25.90;14.90;;;;;;;-6.74;65.80;103068.38;105348;1261;74447;-70
2023/02/08 07:48:12;;;;;;;25.90;15.30;;;;;;;-6.66;65.75;103070.37;105406;1257;59794;-70
2023/02/08 07:50:39;;;;;;;24.80;14.90;;;;;;;-6.57;65.82;103071.18;105146;1262;64369;-71
2023/02/08 07:53:07;;;;;;;25.30;14.70;;;;;;;-6.49;65.74;103072.33;105439;1260;59544;-70
2023/02/08 07:55:35;;;;;;;25.20;14.30;;;;;;;-6.40;65.54;103069.69;105339;1256;59731;-69
2023/02/08 07:58:02;;;;;;;31.50;17.70;;;;;;;-6.36;65.39;103069.49;105176;1257;64962;-69
2023/02/08 08:00:30;;;;;;;28.60;16.30;;;;;;;-6.32;65.30;103074.95;105001;1257;59956;-70
2023/02/08 08:02:57;;;;;;;24.70;14.90;;;;;;;-6.27;65.22;103072.38;105446;1256;65700;-69
2023/02/08 08:05:25;;;;;;;28.00;15.20;;;;;;;-6.21;65.10;103072.56;105581;1260;59726;-68
2023/02/08 08:07:53;;;;;;;23.00;13.60;;;;;;;-6.14;65.01;103070.89;105394;1257;59651;-67
2023/02/08 08:10:20;;;;;;;26.30;14.50;;;;;;;-6.08;64.82;103064.06;105130;1257;65876;-67
2023/02/08 08:12:47;;;;;;;24.80;14.00;;;;;;;-6.03;64.66;103065.41;105271;1262;59790;-68
2023/02/08 08:15:14;;;;;;;26.90;14.30;;;;;;;-5.99;64.50;103065.22;105207;1257;65264;-68
2023/02/08 08:17:42;;;;;;;25.40;14.50;;;;;;;-5.93;64.40;103058.86;105598;1259;59560;-68
2023/02/08 08:20:10;;;;;;;28.90;14.90;;;;;;;-5.85;64.45;103058.77;105278;1257;61839;-66
2023/02/08 08:22:37;;;;;;;27.80;14.90;;;;;;;-5.73;64.38;103059.62;105096;1263;64614;-68
2023/02/08 08:25:04;;;;;;;24.50;14.00;;;;;;;-5.63;64.27;103062.67;104967;1257;59983;-68
2023/02/08 08:27:32;;;;;;;24.10;14.20;;;;;;;-5.54;64.12;103063.98;105355;1260;65709;-68
2023/02/08 08:30:00;;;;;;;27.10;15.20;;;;;;;-5.46;63.99;103070.58;105180;1263;59506;-67
2023/02/08 08:32:29;;;;;;;27.20;16.30;;;;;;;-5.39;63.85;103069.74;105187;1256;61595;-67
2023/02/08 08:34:57;;;;;;;26.80;15.60;;;;;;;-5.32;63.68;103068.95;105461;1260;65563;-67
2023/02/08 08:37:24;;;;;;;29.00;16.80;;;;;;;-5.26;63.60;103068.95;105440;1260;60135;-68
2023/02/08 08:39:52;;;;;;;25.40;15.60;;;;;;;-5.21;63.36;103067.38;105078;1263;64480;-66
2023/02/08 08:42:19;;;;;;;27.80;16.10;;;;;;;-5.15;63.24;103066.34;105078;1257;60524;-66
2023/02/08 08:44:46;;;;;;;26.90;16.10;;;;;;;-5.08;63.10;103071.67;105195;1257;60638;-67
2023/02/08 08:47:14;;;;;;;29.70;17.90;;;;;;;-5.05;62.99;103072.45;105026;1257;66507;-70
2023/02/08 08:49:42;;;;;;;28.20;16.60;;;;;;;-5.02;62.97;103077.20;105289;1253;60533;-69
2023/02/08 08:52:10;;;;;;;40.20;23.00;;;;;;;-4.94;62.89;103077.23;105608;1253;65330;-69
2023/02/08 08:54:37;;;;;;;33.70;19.80;;;;;;;-4.86;62.96;103076.60;105794;1254;60520;-69
2023/02/08 08:57:05;;;;;;;37.00;21.90;;;;;;;-4.77;62.94;103076.14;105884;1253;61100;-67
2023/02/08 08:59:32;;;;;;;32.00;17.30;;;;;;;-4.68;62.87;103075.00;106087;1253;66724;-71
2023/02/08 09:01:59;;;;;;;28.00;16.40;;;;;;;-4.59;62.72;103077.14;105862;1253;61187;-70
2023/02/08 09:04:26;;;;;;;25.30;15.20;;;;;;;-4.48;62.63;103074.15;106143;1253;66005;-69
2023/02/08 09:06:54;;;;;;;27.00;15.60;;;;;;;-4.35;62.68;103067.10;105873;1253;60991;-73
2023/02/08 09:09:21;;;;;;;25.30;15.30;;;;;;;-4.22;62.62;103067.95;105813;1253;60468;-74
2023/02/08 09:11:48;;;;;;;22.80;13.00;;;;;;;-4.14;62.08;103066.42;105821;1257;65560;-69
2023/02/08 09:14:15;;;;;;;25.10;14.00;;;;;;;-4.14;61.91;103065.23;105806;1253;61436;-74
2023/02/08 09:16:46;;;;;;;24.90;14.90;;;;;;;-4.09;61.81;103066.35;106191;1254;65800;-71
2023/02/08 09:19:14;;;;;;;24.10;13.60;;;;;;;-3.99;61.91;103068.67;105897;1253;60530;-73
2023/02/08 09:21:41;;;;;;;22.60;13.30;;;;;;;-3.86;61.67;103067.58;105943;1257;60436;-72
2023/02/08 09:24:08;;;;;;;19.30;12.40;;;;;;;-3.76;61.36;103063.34;105879;1254;66537;-71
2023/02/08 09:26:36;;;;;;;23.20;14.30;;;;;;;-3.65;61.40;103062.90;105995;1253;60620;-70
2023/02/08 09:29:04;;;;;;;25.00;14.80;;;;;;;-3.54;61.25;103054.54;106081;1253;65607;-73
2023/02/08 09:31:36;;;;;;;21.20;13.20;;;;;;;-3.48;60.73;103053.63;105964;1253;60485;-74
2023/02/08 09:34:04;;;;;;;25.80;15.60;;;;;;;-3.41;60.68;103052.94;106030;1256;60430;-75
2023/02/08 09:36:32;;;;;;;21.40;13.00;;;;;;;-3.24;60.88;103051.05;106410;1253;66428;-77
2023/02/08 09:39:04;;;;;;;18.60;12.40;;;;;;;-3.03;60.87;103050.92;106034;1253;60550;-81
2023/02/08 09:41:37;;;;;;;27.50;17.60;;;;;;;-2.88;60.67;103052.60;105817;1253;65446;-76
2023/02/08 09:44:07;;;;;;;;;;;;;;;-2.73;60.44;103049.78;106176;1254;60472;-73
2023/02/08 09:46:37;;;;;;;21.30;12.00;;;;;;;-2.56;60.15;103047.49;105748;1253;61199;-73
2023/02/08 09:49:07;;;;;;;22.80;13.60;;;;;;;-2.42;60.03;103042.58;105904;1257;66534;-71
2023/02/08 09:51:38;;;;;;;19.30;12.40;;;;;;;-2.22;59.93;103040.98;105780;1254;60365;-72
2023/02/08 09:54:24;;;;;;;19.70;11.60;;;;;;;-1.99;59.72;103034.80;105761;1253;65541;-74
2023/02/08 09:56:51;;;;;;;20.00;9.70;;;;;;;-1.76;59.11;103034.78;106033;1253;60400;-73
2023/02/08 09:59:28;;;;;;;20.00;12.10;;;;;;;-1.56;58.77;103034.02;106095;1260;60739;-72
2023/02/08 10:02:00;;;;;;;18.70;11.20;;;;;;;-1.31;58.41;103037.45;106198;1253;66753;-71
2023/02/08 10:04:29;;;;;;;16.70;10.40;;;;;;;-1.10;57.85;103038.91;106303;1254;60443;-75
2023/02/08 10:06:56;;;;;;;17.10;10.50;;;;;;;-0.88;57.57;103033.09;105815;1258;65563;-71
2023/02/08 10:09:24;;;;;;;18.40;10.20;;;;;;;-0.67;57.17;103029.68;106313;1254;60426;-72
2023/02/08 10:12:02;;;;;;;17.50;10.60;;;;;;;-0.52;56.18;103025.66;105543;1254;60470;-72
2023/02/08 10:15:09;;;;;;;20.20;11.90;;;;;;;-0.43;55.37;103029.38;105979;1258;66643;-71
2023/02/08 10:18:07;;;;;;;18.60;10.50;;;;;;;-0.34;54.88;103024.08;106610;1253;60531;-71
2023/02/08 10:21:09;;;;;;;14.40;8.70;;;;;;;-0.21;54.67;103024.88;105911;1253;65483;-71
2023/02/08 10:23:54;;;;;;;13.90;9.00;;;;;;;-0.02;54.37;103026.58;106055;1253;60371;-73
2023/02/08 10:26:22;;;;;;;17.00;10.40;;;;;;;0.17;53.95;103028.78;105876;1252;60428;-70
2023/02/08 10:29:07;;;;;;;16.80;10.40;;;;;;;0.30;53.24;103028.52;106034;1253;65740;-70
2023/02/08 10:32:08;;;;;;;16.70;10.40;;;;;;;0.35;52.88;103033.21;106074;1253;60511;-69
2023/02/08 10:34:47;;;;;;;15.30;11.10;;;;;;;0.48;52.56;103033.29;105454;1253;64826;-70
2023/02/08 10:37:20;;;;;;;16.50;10.50;;;;;;;0.61;52.45;103038.55;106014;1253;60602;-70
2023/02/08 10:39:48;;;;;;;17.40;11.40;;;;;;;0.74;52.35;103034.63;105779;1256;59261;-70
2023/02/08 10:42:21;;;;;;;15.30;10.40;;;;;;;0.93;52.36;103037.12;105658;1256;66801;-70
2023/02/08 10:44:50;;;;;;;19.60;12.40;;;;;;;1.06;51.99;103040.80;107093;1253;60526;-71
2023/02/08 10:47:38;;;;;;;14.20;9.80;;;;;;;1.13;51.44;103047.39;105891;1254;65410;-69
2023/02/08 10:50:17;;;;;;;16.10;9.80;;;;;;;1.19;51.01;103045.34;105838;1253;60421;-71
2023/02/08 10:52:45;;;;;;;23.60;14.00;;;;;;;1.27;51.09;103043.96;105729;1256;60326;-75
2023/02/08 10:55:18;;;;;;;17.50;10.60;;;;;;;1.37;50.98;103039.46;105862;1257;66826;-74
2023/02/08 10:57:47;;;;;;;15.90;9.70;;;;;;;1.47;50.55;103041.39;105753;1258;60264;-74
2023/02/08 11:00:28;;;;;;;14.20;9.10;;;;;;;1.59;50.35;103044.34;105925;1253;65502;-73
2023/02/08 11:02:56;;;;;;;14.20;9.40;;;;;;;1.68;49.80;103038.80;105789;1256;60479;-73
2023/02/08 11:05:24;;;;;;;12.90;8.40;;;;;;;1.71;49.34;103035.30;105945;1253;60331;-71
2023/02/08 11:08:23;;;;;;;14.40;8.80;;;;;;;1.71;49.03;103034.27;105726;1255;75605;-71
2023/02/08 11:11:03;;;;;;;13.60;9.30;;;;;;;1.78;48.98;103031.31;105567;1252;60466;-73
2023/02/08 11:13:39;;;;;;;13.20;8.40;;;;;;;1.83;48.72;103027.85;105908;1253;65454;-73
2023/02/08 11:16:06;;;;;;;13.60;8.90;;;;;;;1.92;49.02;103028.53;105850;1253;60460;-73
2023/02/08 11:18:36;;;;;;;13.20;9.20;;;;;;;2.02;48.47;103029.21;105863;1252;60436;-73
2023/02/08 11:21:06;;;;;;;13.90;8.90;;;;;;;2.06;48.46;103024.35;106028;1253;65634;-74
2023/02/08 11:23:47;;;;;;;11.40;8.30;;;;;;;2.10;48.20;103020.68;105782;1253;60541;-72
2023/02/08 11:26:29;;;;;;;13.50;8.90;;;;;;;2.20;48.19;103022.23;105517;1259;65502;-71
2023/02/08 11:29:04;;;;;;;14.90;9.50;;;;;;;2.36;48.07;103022.89;105977;1253;60431;-69
2023/02/08 11:31:34;;;;;;;12.00;8.40;;;;;;;2.43;47.60;103022.34;105807;1253;60528;-72
2023/02/08 11:34:09;;;;;;;13.70;9.20;;;;;;;2.47;47.84;103017.11;105510;1253;67064;-72
2023/02/08 11:36:37;;;;;;;13.50;9.20;;;;;;;2.54;47.47;103019.70;105827;1253;60965;-72
2023/02/08 11:39:54;;;;;;;14.10;9.50;;;;;;;2.60;47.23;103021.06;105629;1252;65823;-71
2023/02/08 11:42:23;;;;;;;12.70;8.60;;;;;;;2.60;47.15;103026.45;105852;1253;60447;-72